Time;durP1;ratioP1;P1;durP2;ratioP2;P2;SDS_P1;SDS_P2;PMS_P1;PMS_P2;Temp;Humidity;BMP_temperature;BMP_pressure;BME280_temperature;BME280_humidity;BME280_pressure;Samples;Min_cycle;Max_cycle;Signal;HPM_P1;HPM_P2
2022/02/14 00:02:19;;;;;;;9.55;1.98;;;27.40;99.90;;;;;;5074405;28;20017;-78
2022/02/14 00:04:47;;;;;;;11.77;1.90;;;27.30;99.90;;;;;;5056679;28;20119;-79
2022/02/14 00:07:14;;;;;;;7.90;1.58;;;27.50;99.90;;;;;;5074978;28;20074;-80
2022/02/14 00:09:41;;;;;;;11.85;2.30;;;27.70;99.90;;;;;;5074134;28;20028;-80
2022/02/14 00:12:09;;;;;;;8.68;1.85;;;27.60;99.90;;;;;;5075795;28;20046;-81
2022/02/14 00:14:36;;;;;;;8.35;1.30;;;27.60;99.90;;;;;;5073254;28;20024;-80
2022/02/14 00:17:03;;;;;;;7.70;1.48;;;27.60;99.90;;;;;;5073768;28;20027;-81
2022/02/14 00:19:31;;;;;;;9.18;2.08;;;27.70;99.90;;;;;;5075085;28;20103;-81
2022/02/14 00:21:58;;;;;;;7.20;1.58;;;27.70;99.90;;;;;;5073500;28;20025;-80
2022/02/14 00:24:29;;;;;;;8.95;2.00;;;27.70;99.90;;;;;;5076372;28;20048;-80
2022/02/14 00:26:57;;;;;;;7.05;1.70;;;27.40;99.90;;;;;;5075001;28;20367;-79
2022/02/14 00:29:24;;;;;;;9.18;1.95;;;27.20;99.90;;;;;;5075083;28;20048;-80
2022/02/14 00:31:52;;;;;;;10.88;2.28;;;27.40;99.90;;;;;;5078789;28;20129;-81
2022/02/14 00:34:19;;;;;;;8.55;1.80;;;27.30;99.90;;;;;;5075822;28;20114;-82
2022/02/14 00:36:46;;;;;;;9.20;1.85;;;27.60;99.90;;;;;;5073350;28;20059;-81
2022/02/14 00:39:14;;;;;;;9.75;1.75;;;27.80;99.90;;;;;;5074084;28;20090;-82
2022/02/14 00:41:41;;;;;;;10.60;2.53;;;27.60;99.90;;;;;;5073115;28;20457;-80
2022/02/14 00:44:08;;;;;;;10.27;2.05;;;27.60;99.90;;;;;;5072914;28;20092;-79
2022/02/14 00:46:36;;;;;;;11.95;2.35;;;27.20;99.90;;;;;;5072366;28;20024;-79
2022/02/14 00:49:03;;;;;;;12.77;2.85;;;27.00;99.90;;;;;;5073861;28;20027;-78
2022/02/14 00:51:32;;;;;;;9.73;2.28;;;27.20;99.90;;;;;;5071589;28;20021;-79
2022/02/14 00:53:59;;;;;;;12.90;2.63;;;27.10;99.90;;;;;;5071805;28;20028;-78
2022/02/14 00:56:27;;;;;;;11.40;2.75;;;27.10;99.90;;;;;;5073470;28;20036;-81
2022/02/14 00:58:54;;;;;;;8.80;2.33;;;27.30;99.90;;;;;;5072309;28;20020;-79
2022/02/14 01:01:22;;;;;;;11.07;2.47;;;27.20;99.90;;;;;;5072052;28;20032;-79
2022/02/14 01:03:49;;;;;;;11.48;2.35;;;27.20;99.90;;;;;;5072001;28;20062;-80
2022/02/14 01:06:17;;;;;;;11.93;2.38;;;27.60;99.90;;;;;;5055458;28;20036;-79
2022/02/14 01:08:44;;;;;;;11.00;2.33;;;27.70;99.90;;;;;;5072943;28;20052;-80
2022/02/14 01:11:13;;;;;;;12.18;2.40;;;27.70;99.90;;;;;;5074668;28;20023;-81
2022/02/14 01:13:40;;;;;;;10.55;2.10;;;28.00;99.90;;;;;;5077597;28;20029;-82
2022/02/14 01:16:08;;;;;;;9.52;2.00;;;28.00;99.90;;;;;;5076769;28;20063;-80
2022/02/14 01:18:35;;;;;;;10.88;1.80;;;27.80;99.90;;;;;;5076940;28;20537;-84
2022/02/14 01:21:03;;;;;;;8.52;2.03;;;27.90;99.90;;;;;;5075840;28;20066;-82
2022/02/14 01:23:30;;;;;;;10.30;1.85;;;27.90;99.90;;;;;;5076302;28;20101;-82
2022/02/14 01:25:58;;;;;;;9.05;2.13;;;27.40;99.90;;;;;;5075350;28;20021;-83
2022/02/14 01:28:25;;;;;;;8.88;2.60;;;27.40;99.90;;;;;;5076789;28;20121;-81
2022/02/14 01:30:52;;;;;;;9.85;2.10;;;27.50;99.90;;;;;;5076091;28;20367;-80
2022/02/14 01:33:20;;;;;;;12.48;2.08;;;27.70;99.90;;;;;;5076808;28;20474;-81
2022/02/14 01:35:47;;;;;;;13.05;2.28;;;27.70;99.90;;;;;;5076101;28;20476;-79
2022/02/14 01:38:15;;;;;;;12.90;2.65;;;27.50;99.90;;;;;;5078485;28;20068;-83
2022/02/14 01:40:42;;;;;;;10.05;2.38;;;27.40;99.90;;;;;;5076079;28;20078;-80
2022/02/14 01:43:15;;;;;;;12.88;2.80;;;27.20;99.90;;;;;;5075351;28;20028;-79
2022/02/14 01:45:43;;;;;;;10.05;2.13;;;27.40;99.90;;;;;;5076394;28;20035;-81
2022/02/14 01:48:11;;;;;;;8.05;2.08;;;27.60;99.90;;;;;;5076973;28;20020;-79
2022/02/14 01:50:39;;;;;;;10.65;1.98;;;27.50;99.90;;;;;;5076851;28;20025;-78
2022/02/14 01:53:07;;;;;;;8.45;2.03;;;27.20;99.90;;;;;;5077587;28;20013;-81
2022/02/14 01:55:35;;;;;;;12.77;2.08;;;27.10;99.90;;;;;;5077681;28;20025;-79
2022/02/14 01:58:04;;;;;;;12.10;1.95;;;27.00;99.90;;;;;;5076175;28;20393;-78
2022/02/14 02:00:33;;;;;;;10.43;2.30;;;27.20;99.90;;;;;;5076309;28;20031;-79
2022/02/14 02:03:01;;;;;;;9.07;2.00;;;27.10;99.90;;;;;;5077012;28;20401;-79
2022/02/14 02:05:28;;;;;;;11.98;2.03;;;27.10;99.90;;;;;;5075707;28;20055;-79
2022/02/14 02:07:56;;;;;;;13.07;2.40;;;27.40;99.90;;;;;;5076362;28;20431;-79
2022/02/14 02:10:23;;;;;;;12.00;2.58;;;27.90;99.90;;;;;;5074938;28;20070;-80
2022/02/14 02:12:57;;;;;;;11.52;2.42;;;28.10;99.90;;;;;;5074761;28;20024;-81
2022/02/14 02:15:25;;;;;;;9.05;1.90;;;28.50;99.90;;;;;;5076784;28;20058;-81
2022/02/14 02:17:52;;;;;;;11.05;2.22;;;28.50;99.90;;;;;;5075505;28;20039;-80
2022/02/14 02:20:20;;;;;;;9.90;1.88;;;28.30;99.90;;;;;;5076873;28;20028;-80
2022/02/14 02:22:50;;;;;;;7.38;2.30;;;28.70;99.90;;;;;;5075896;28;20104;-81
2022/02/14 02:25:18;;;;;;;9.40;2.08;;;28.60;99.90;;;;;;5075918;28;20041;-80
2022/02/14 02:27:47;;;;;;;7.25;2.00;;;28.50;99.90;;;;;;5075841;28;20033;-81
2022/02/14 02:30:22;;;;;;;10.52;2.25;;;28.40;99.90;;;;;;5075867;28;20024;-81
2022/02/14 02:32:50;;;;;;;8.95;1.92;;;28.50;99.90;;;;;;5075438;28;20027;-81
2022/02/14 02:35:18;;;;;;;7.82;1.90;;;28.60;99.90;;;;;;5076887;28;20020;-81
2022/02/14 02:37:45;;;;;;;6.65;1.55;;;28.80;99.90;;;;;;5074963;28;20089;-80
2022/02/14 02:40:13;;;;;;;12.20;1.85;;;29.00;99.90;;;;;;5075850;28;20090;-80
2022/02/14 02:42:41;;;;;;;6.82;1.80;;;29.20;99.90;;;;;;5074652;28;20039;-80
2022/02/14 02:45:09;;;;;;;7.85;1.67;;;29.30;99.90;;;;;;5074356;28;20394;-79
2022/02/14 02:47:36;;;;;;;8.38;1.63;;;29.70;99.90;;;;;;5076384;28;20017;-80
2022/02/14 02:50:05;;;;;;;9.15;1.40;;;29.50;99.90;;;;;;5076870;28;20024;-81
2022/02/14 02:52:32;;;;;;;8.52;1.67;;;29.20;99.90;;;;;;5058596;28;20067;-82
2022/02/14 02:55:00;;;;;;;9.35;1.52;;;29.20;99.90;;;;;;5078245;28;20021;-80
2022/02/14 02:57:30;;;;;;;10.20;1.98;;;29.20;99.90;;;;;;5076828;28;20402;-81
2022/02/14 02:59:58;;;;;;;8.10;2.10;;;29.20;99.90;;;;;;5079069;28;20366;-81
2022/02/14 03:02:25;;;;;;;6.80;2.33;;;29.10;99.90;;;;;;5076733;28;20035;-82
2022/02/14 03:04:53;;;;;;;6.38;1.63;;;28.80;99.90;;;;;;5076543;28;20024;-80
2022/02/14 03:07:21;;;;;;;13.52;2.55;;;29.10;99.90;;;;;;5074679;28;20021;-80
2022/02/14 03:09:48;;;;;;;7.88;1.73;;;29.40;99.90;;;;;;5075636;28;20497;-81
2022/02/14 03:12:15;;;;;;;14.18;1.90;;;29.10;99.90;;;;;;5076343;28;20074;-81
2022/02/14 03:14:43;;;;;;;9.27;1.80;;;29.20;99.90;;;;;;5075448;28;20021;-81
2022/02/14 03:17:12;;;;;;;8.73;1.92;;;29.60;99.90;;;;;;5075518;28;20028;-81
2022/02/14 03:19:39;;;;;;;7.82;1.75;;;29.30;99.90;;;;;;5058699;28;20036;-81
2022/02/14 03:22:07;;;;;;;8.77;1.75;;;29.10;99.90;;;;;;5076204;28;20481;-83
2022/02/14 03:24:34;;;;;;;6.05;1.30;;;29.20;99.90;;;;;;5074898;28;20036;-81
2022/02/14 03:27:03;;;;;;;7.90;1.83;;;29.40;99.90;;;;;;5075685;28;20024;-80
2022/02/14 03:29:33;;;;;;;9.43;1.67;;;29.20;99.90;;;;;;5075566;28;20422;-81
2022/02/14 03:32:00;;;;;;;7.63;1.58;;;29.30;99.90;;;;;;5074488;28;20036;-83
2022/02/14 03:34:27;;;;;;;7.88;2.03;;;29.30;99.90;;;;;;5073446;28;20024;-79
2022/02/14 03:36:55;;;;;;;7.15;1.95;;;30.00;99.90;;;;;;5074971;28;20485;-81
2022/02/14 03:39:25;;;;;;;8.20;2.10;;;30.00;99.20;;;;;;5076524;28;20119;-81
2022/02/14 03:41:53;;;;;;;8.90;2.00;;;29.70;98.60;;;;;;5074056;28;20032;-81
2022/02/14 03:44:23;;;;;;;10.43;1.83;;;29.40;98.60;;;;;;5075118;28;20005;-82
2022/02/14 03:46:49;;;;;;;;;;;29.50;99.40;;;;;;5076024;28;20050;-81
2022/02/14 03:49:17;;;;;;;7.07;1.77;;;29.30;99.00;;;;;;5075858;28;20357;-82
2022/02/14 03:51:44;;;;;;;8.68;1.50;;;29.30;99.60;;;;;;5075027;28;20482;-81
2022/02/14 03:54:12;;;;;;;7.93;1.90;;;29.60;99.20;;;;;;5075192;28;20021;-81
2022/02/14 03:56:39;;;;;;;7.57;1.85;;;29.80;99.60;;;;;;5075617;28;20361;-80
2022/02/14 03:59:06;;;;;;;8.32;1.63;;;29.90;99.30;;;;;;5075628;28;20024;-78
2022/02/14 04:01:34;;;;;;;10.07;1.70;;;30.00;99.30;;;;;;5075212;28;20031;-80
2022/02/14 04:04:01;;;;;;;9.95;2.00;;;29.90;98.90;;;;;;5075349;28;20493;-80
2022/02/14 04:06:28;;;;;;;9.35;1.50;;;29.40;98.30;;;;;;5075102;28;20027;-80
2022/02/14 04:08:56;;;;;;;6.90;1.50;;;29.10;98.60;;;;;;5074286;28;20029;-81
2022/02/14 04:11:23;;;;;;;7.95;1.52;;;29.30;98.70;;;;;;5074784;28;20035;-81
2022/02/14 04:13:50;;;;;;;6.13;1.30;;;29.60;99.10;;;;;;5074754;28;20029;-80
2022/02/14 04:16:18;;;;;;;10.15;1.70;;;29.90;99.40;;;;;;5076531;28;20025;-81
2022/02/14 04:18:45;;;;;;;7.43;1.40;;;30.00;99.40;;;;;;5076308;28;20028;-80
2022/02/14 04:21:12;;;;;;;9.18;1.40;;;29.80;98.90;;;;;;5076451;28;20022;-80
2022/02/14 04:23:39;;;;;;;8.52;1.60;;;29.60;98.50;;;;;;5075938;28;20040;-80
2022/02/14 04:26:07;;;;;;;8.18;1.38;;;29.60;97.90;;;;;;5074889;28;20036;-82
2022/02/14 04:28:34;;;;;;;8.07;1.55;;;29.40;98.20;;;;;;5074929;28;20028;-80
2022/02/14 04:31:02;;;;;;;5.43;1.45;;;29.60;98.20;;;;;;5074508;28;20025;-77
2022/02/14 04:33:29;;;;;;;6.15;1.48;;;29.40;98.80;;;;;;5076081;28;20036;-80
2022/02/14 04:35:56;;;;;;;6.10;1.50;;;29.90;98.60;;;;;;5075719;28;20028;-81
2022/02/14 04:38:24;;;;;;;9.63;1.80;;;29.80;98.40;;;;;;5076496;28;20473;-81
2022/02/14 04:40:51;;;;;;;10.13;1.75;;;29.80;98.30;;;;;;5075720;28;20032;-80
2022/02/14 04:43:18;;;;;;;10.77;1.52;;;29.90;98.70;;;;;;5076210;28;20120;-81
2022/02/14 04:45:46;;;;;;;7.32;1.55;;;29.80;98.30;;;;;;5075476;28;20052;-80
2022/02/14 04:48:14;;;;;;;9.50;1.50;;;29.80;97.90;;;;;;5077328;28;20025;-81
2022/02/14 04:50:42;;;;;;;7.43;1.85;;;29.80;98.40;;;;;;5078739;28;20485;-80
2022/02/14 04:53:09;;;;;;;8.93;1.27;;;29.70;98.90;;;;;;5078774;28;20493;-80
2022/02/14 04:55:36;;;;;;;6.80;1.70;;;29.60;98.70;;;;;;5079915;28;20017;-82
2022/02/14 04:58:04;;;;;;;8.25;1.90;;;29.80;99.30;;;;;;5079179;28;20390;-82
2022/02/14 05:00:32;;;;;;;5.95;1.35;;;29.60;98.90;;;;;;5061360;28;20031;-83
2022/02/14 05:02:59;;;;;;;6.88;1.52;;;29.40;98.50;;;;;;5080261;28;20025;-82
2022/02/14 05:05:26;;;;;;;6.78;1.80;;;29.30;98.70;;;;;;5080734;28;20013;-82
2022/02/14 05:07:54;;;;;;;6.97;1.48;;;29.30;99.00;;;;;;5079725;28;20099;-81
2022/02/14 05:10:21;;;;;;;6.88;1.42;;;29.50;99.20;;;;;;5078697;28;20430;-81
2022/02/14 05:12:49;;;;;;;6.70;1.83;;;29.60;99.00;;;;;;5079635;28;20050;-81
2022/02/14 05:15:16;;;;;;;9.40;2.00;;;29.50;98.60;;;;;;5078295;28;20084;-83
2022/02/14 05:17:44;;;;;;;9.05;1.70;;;29.50;99.00;;;;;;5078359;28;20506;-81
2022/02/14 05:20:12;;;;;;;9.18;1.50;;;29.40;99.40;;;;;;5077936;28;20020;-82
2022/02/14 05:22:39;;;;;;;8.40;1.92;;;28.90;99.90;;;;;;5077918;28;20021;-78
2022/02/14 05:25:07;;;;;;;9.15;1.40;;;29.10;99.90;;;;;;5079091;28;20047;-80
2022/02/14 05:27:34;;;;;;;9.73;1.90;;;28.90;99.90;;;;;;5078273;28;20021;-79
2022/02/14 05:30:02;;;;;;;8.52;1.70;;;28.90;99.90;;;;;;5078822;28;20032;-81
2022/02/14 05:32:29;;;;;;;8.10;1.65;;;28.90;99.90;;;;;;5077873;28;20021;-76
2022/02/14 05:34:56;;;;;;;6.82;2.22;;;28.90;99.90;;;;;;5078114;28;20028;-80
2022/02/14 05:37:25;;;;;;;8.40;1.42;;;28.80;99.90;;;;;;5078991;28;20031;-80
2022/02/14 05:39:53;;;;;;;7.65;1.98;;;28.80;99.20;;;;;;5078549;28;20454;-81
2022/02/14 05:42:20;;;;;;;8.30;2.25;;;28.80;99.40;;;;;;5078738;28;20025;-80
2022/02/14 05:44:48;;;;;;;7.35;1.58;;;28.80;99.00;;;;;;5077672;28;20496;-80
2022/02/14 05:47:15;;;;;;;8.20;1.65;;;28.50;98.80;;;;;;5077630;28;20028;-81
2022/02/14 05:49:43;;;;;;;7.72;1.77;;;28.50;99.30;;;;;;5077089;28;20442;-81
2022/02/14 05:52:10;;;;;;;6.05;1.13;;;28.50;99.10;;;;;;5077747;28;20029;-84
2022/02/14 05:54:38;;;;;;;8.68;1.85;;;28.60;99.90;;;;;;5075598;28;20020;-81
2022/02/14 05:57:06;;;;;;;12.27;1.60;;;28.70;99.90;;;;;;5075926;28;20397;-82
2022/02/14 05:59:33;;;;;;;6.85;1.70;;;28.60;99.90;;;;;;5058173;28;20493;-81
2022/02/14 06:02:02;;;;;;;5.75;1.50;;;28.50;99.90;;;;;;5075390;28;20016;-80
2022/02/14 06:04:33;;;;;;;6.75;1.70;;;28.40;99.60;;;;;;5075813;28;20017;-81
2022/02/14 06:07:00;;;;;;;9.93;1.90;;;28.20;99.90;;;;;;5076051;28;20028;-81
2022/02/14 06:09:28;;;;;;;9.43;1.75;;;28.50;99.90;;;;;;5077612;28;20608;-80
2022/02/14 06:11:59;;;;;;;10.30;1.40;;;28.60;99.90;;;;;;5077815;28;20025;-81
2022/02/14 06:14:27;;;;;;;7.85;1.80;;;28.70;99.90;;;;;;5076059;28;20029;-82
2022/02/14 06:16:57;;;;;;;9.07;2.00;;;28.80;99.90;;;;;;5077487;28;20017;-81
2022/02/14 06:19:24;;;;;;;9.18;1.52;;;28.90;99.90;;;;;;5076608;28;20035;-82
2022/02/14 06:21:52;;;;;;;9.82;1.40;;;28.70;99.50;;;;;;5076278;28;20546;-81
2022/02/14 06:24:20;;;;;;;6.47;1.35;;;28.60;99.20;;;;;;5059158;28;20072;-83
2022/02/14 06:26:49;;;;;;;6.75;2.03;;;28.60;99.20;;;;;;5076052;28;20111;-82
2022/02/14 06:29:16;;;;;;;7.50;1.70;;;28.70;99.10;;;;;;5077059;28;20021;-82
2022/02/14 06:31:44;;;;;;;7.32;1.90;;;28.50;99.20;;;;;;5075676;28;20481;-81
2022/02/14 06:34:12;;;;;;;8.82;1.73;;;28.50;99.40;;;;;;5076051;28;20033;-80
2022/02/14 06:36:39;;;;;;;9.23;1.50;;;28.50;99.50;;;;;;5075094;28;20199;-81
2022/02/14 06:39:09;;;;;;;7.97;1.75;;;28.50;99.60;;;;;;5060490;28;20033;-80
2022/02/14 06:41:37;;;;;;;7.03;1.33;;;28.40;99.50;;;;;;5078675;28;20021;-82
2022/02/14 06:44:04;;;;;;;9.95;1.60;;;28.20;99.50;;;;;;5078331;28;20024;-80
2022/02/14 06:46:32;;;;;;;8.65;1.35;;;28.20;99.70;;;;;;5076490;28;20062;-79
2022/02/14 06:49:03;;;;;;;9.77;1.77;;;28.30;99.90;;;;;;5076504;28;20043;-79
2022/02/14 06:51:30;;;;;;;7.43;1.40;;;28.40;99.80;;;;;;5077022;28;20017;-80
2022/02/14 06:53:57;;;;;;;9.05;2.00;;;28.30;99.90;;;;;;5076557;28;20047;-80
2022/02/14 06:56:25;;;;;;;8.65;1.90;;;28.20;99.90;;;;;;5075867;28;20371;-81
2022/02/14 06:58:53;;;;;;;8.45;1.92;;;28.40;99.90;;;;;;5072854;28;20032;-81
2022/02/14 07:01:20;;;;;;;8.63;2.15;;;28.50;99.90;;;;;;5072893;28;20021;-80
2022/02/14 07:03:48;;;;;;;7.80;1.42;;;28.60;99.90;;;;;;5073433;28;20422;-79
2022/02/14 07:06:17;;;;;;;7.70;1.70;;;28.70;99.90;;;;;;5074575;28;20044;-77
2022/02/14 07:08:44;;;;;;;10.38;2.25;;;28.70;99.90;;;;;;5073937;28;20078;-78
2022/02/14 07:11:12;;;;;;;8.43;1.83;;;28.90;99.90;;;;;;5073303;28;20496;-78
2022/02/14 07:13:43;;;;;;;8.85;1.70;;;28.80;99.90;;;;;;5073705;28;20020;-77
2022/02/14 07:16:11;;;;;;;12.45;2.30;;;28.20;99.90;;;;;;5073831;28;20070;-77
2022/02/14 07:18:40;;;;;;;12.88;2.17;;;28.10;99.90;;;;;;5072092;28;20024;-76
2022/02/14 07:21:08;;;;;;;8.50;1.83;;;28.00;99.90;;;;;;5072300;28;20036;-78
2022/02/14 07:23:36;;;;;;;9.02;1.60;;;27.80;99.90;;;;;;5071983;28;20076;-77
2022/02/14 07:26:04;;;;;;;8.40;1.65;;;27.80;99.90;;;;;;5072405;28;20027;-78
2022/02/14 07:28:31;;;;;;;10.48;2.75;;;27.40;99.90;;;;;;5055998;28;20020;-77
2022/02/14 07:30:58;;;;;;;11.73;2.15;;;27.10;99.90;;;;;;5072578;28;20493;-77
2022/02/14 07:33:27;;;;;;;10.80;2.63;;;26.50;99.90;;;;;;5072365;28;20385;-79
2022/02/14 07:35:54;;;;;;;14.55;2.30;;;26.20;99.90;;;;;;5073783;28;20572;-79
2022/02/14 07:38:22;;;;;;;11.68;2.33;;;26.20;99.90;;;;;;5073307;28;20069;-77
2022/02/14 07:40:49;;;;;;;8.65;1.88;;;26.10;99.90;;;;;;5072064;28;20561;-78
2022/02/14 07:43:17;;;;;;;17.27;3.20;;;25.70;99.90;;;;;;5071945;28;20105;-79
2022/02/14 07:45:44;;;;;;;7.88;1.80;;;25.50;99.90;;;;;;5072104;28;20028;-79
2022/02/14 07:48:11;;;;;;;9.88;2.13;;;25.50;99.90;;;;;;5071812;28;20569;-79
2022/02/14 07:50:39;;;;;;;13.68;2.20;;;25.40;99.90;;;;;;5071776;28;20115;-80
2022/02/14 07:53:09;;;;;;;11.45;2.05;;;25.20;99.90;;;;;;5073537;28;20478;-81
2022/02/14 07:55:37;;;;;;;9.23;1.73;;;25.10;99.90;;;;;;5072165;28;20059;-82
2022/02/14 07:58:04;;;;;;;13.48;1.88;;;25.20;99.90;;;;;;5072266;28;20056;-80
2022/02/14 08:00:31;;;;;;;8.80;1.83;;;25.00;99.90;;;;;;5074844;28;20449;-80
2022/02/14 08:02:59;;;;;;;11.90;2.13;;;24.90;99.90;;;;;;5072192;28;20055;-81
2022/02/14 08:05:26;;;;;;;9.63;2.40;;;24.80;99.90;;;;;;5072841;28;20032;-80
2022/02/14 08:07:55;;;;;;;8.63;2.75;;;24.80;99.90;;;;;;5073335;28;20043;-79
2022/02/14 08:10:22;;;;;;;11.43;1.88;;;24.70;99.90;;;;;;5072382;28;20052;-80
2022/02/14 08:12:50;;;;;;;12.60;3.08;;;24.70;99.90;;;;;;5071821;28;20025;-77
2022/02/14 08:15:17;;;;;;;13.05;2.30;;;24.60;99.90;;;;;;5072975;28;20027;-79
2022/02/14 08:17:44;;;;;;;14.35;2.28;;;24.40;99.90;;;;;;5074586;28;20031;-81
2022/02/14 08:20:12;;;;;;;14.05;2.28;;;24.40;99.90;;;;;;5073786;28;20021;-80
2022/02/14 08:22:39;;;;;;;11.15;2.28;;;24.30;99.90;;;;;;5078884;28;20035;-80
2022/02/14 08:25:07;;;;;;;13.23;2.25;;;24.10;99.90;;;;;;5078217;28;20048;-79
2022/02/14 08:27:34;;;;;;;9.05;1.65;;;24.10;99.90;;;;;;5079554;28;20105;-80
2022/02/14 08:30:02;;;;;;;13.55;2.45;;;24.00;99.90;;;;;;5078472;28;20024;-79
2022/02/14 08:32:29;;;;;;;10.95;1.92;;;24.00;99.90;;;;;;5079458;28;20107;-78
2022/02/14 08:34:57;;;;;;;11.57;2.40;;;24.00;99.90;;;;;;5077848;28;20036;-77
2022/02/14 08:37:24;;;;;;;13.10;2.58;;;23.90;99.90;;;;;;5061921;28;20078;-77
2022/02/14 08:39:52;;;;;;;13.13;2.65;;;23.80;99.90;;;;;;5079103;28;20068;-80
2022/02/14 08:42:19;;;;;;;11.40;1.95;;;23.80;99.90;;;;;;5080036;28;20016;-80
2022/02/14 08:44:46;;;;;;;12.80;2.25;;;23.70;99.90;;;;;;5078897;28;20027;-82
2022/02/14 08:47:14;;;;;;;10.68;1.98;;;23.60;99.90;;;;;;5079545;28;20028;-77
2022/02/14 08:49:41;;;;;;;15.82;2.45;;;23.60;99.90;;;;;;5079060;28;20063;-80
2022/02/14 08:52:09;;;;;;;10.68;2.47;;;23.50;99.90;;;;;;5080908;28;20033;-79
2022/02/14 08:54:36;;;;;;;11.27;2.67;;;23.40;99.90;;;;;;5080402;28;20179;-78
2022/02/14 08:57:03;;;;;;;12.68;2.10;;;23.40;99.90;;;;;;5078860;28;20021;-79
2022/02/14 08:59:31;;;;;;;13.25;2.50;;;23.30;99.90;;;;;;5079853;28;20405;-79
2022/02/14 09:02:01;;;;;;;10.45;2.40;;;23.30;99.90;;;;;;5078654;28;20025;-78
2022/02/14 09:04:32;;;;;;;14.98;2.30;;;23.30;99.90;;;;;;5079389;28;20481;-79
2022/02/14 09:06:59;;;;;;;11.35;2.70;;;23.30;99.90;;;;;;5078383;28;20073;-79
2022/02/14 09:09:26;;;;;;;12.20;1.80;;;23.20;99.90;;;;;;5079620;28;20024;-79
2022/02/14 09:11:55;;;;;;;10.73;2.42;;;23.20;99.90;;;;;;5079535;28;20095;-79
2022/02/14 09:14:23;;;;;;;13.60;2.17;;;23.10;99.90;;;;;;5078545;28;20036;-78
2022/02/14 09:16:51;;;;;;;13.80;2.67;;;23.10;99.90;;;;;;5079587;28;20078;-81
2022/02/14 09:19:19;;;;;;;16.65;2.33;;;23.10;99.90;;;;;;5079653;28;20431;-78
2022/02/14 09:21:47;;;;;;;10.07;2.65;;;23.00;99.90;;;;;;5078186;28;20052;-78
2022/02/14 09:24:14;;;;;;;9.60;2.42;;;23.00;99.90;;;;;;5078636;28;20055;-78
2022/02/14 09:26:43;;;;;;;15.02;2.53;;;23.00;99.90;;;;;;5081146;28;20023;-77
2022/02/14 09:29:12;;;;;;;11.95;2.33;;;23.00;99.90;;;;;;5079313;28;20430;-77
2022/02/14 09:31:40;;;;;;;15.38;2.45;;;23.00;99.90;;;;;;5080394;28;20553;-78
2022/02/14 09:34:08;;;;;;;11.85;2.00;;;23.00;99.90;;;;;;5076130;28;20013;-78
2022/02/14 09:36:36;;;;;;;13.52;2.28;;;22.90;99.90;;;;;;5076354;28;20020;-77
2022/02/14 09:39:05;;;;;;;12.95;2.17;;;22.90;99.90;;;;;;5076340;28;20021;-79
2022/02/14 09:41:35;;;;;;;16.27;2.10;;;22.90;99.90;;;;;;5076663;28;20074;-78
2022/02/14 09:44:03;;;;;;;11.80;2.30;;;22.90;99.90;;;;;;5075676;28;20025;-79
2022/02/14 09:46:32;;;;;;;14.38;2.58;;;22.90;99.90;;;;;;5075766;28;20097;-78
2022/02/14 09:49:04;;;;;;;14.45;2.97;;;22.90;99.90;;;;;;5075887;28;20035;-78
2022/02/14 09:51:34;;;;;;;16.30;3.08;;;22.90;99.90;;;;;;5079302;28;20017;-78
2022/02/14 09:54:02;;;;;;;14.17;2.27;;;22.80;99.90;;;;;;5077982;28;20024;-78
2022/02/14 09:56:32;;;;;;;15.82;2.15;;;22.80;99.90;;;;;;5075905;28;20256;-79
2022/02/14 09:59:00;;;;;;;15.20;2.58;;;22.80;99.90;;;;;;5078051;28;20094;-78
2022/02/14 10:01:28;;;;;;;18.00;2.92;;;22.80;99.90;;;;;;5078073;28;20013;-78
2022/02/14 10:03:57;;;;;;;15.15;3.20;;;22.70;99.90;;;;;;5078570;28;20141;-79
2022/02/14 10:06:27;;;;;;;13.43;2.20;;;22.80;99.90;;;;;;5077047;28;20028;-79
2022/02/14 10:09:16;;;;;;;19.33;3.38;;;22.70;99.90;;;;;;5077055;28;20029;-79
2022/02/14 10:12:02;;;;;;;15.32;2.85;;;22.70;99.90;;;;;;5076818;28;20021;-80
2022/02/14 10:14:30;;;;;;;16.92;2.92;;;22.70;99.90;;;;;;5077889;28;20085;-77
2022/02/14 10:17:22;;;;;;;12.52;2.40;;;22.70;99.90;;;;;;5077629;28;20024;-80
2022/02/14 10:20:00;;;;;;;11.95;2.47;;;22.70;99.90;;;;;;5077701;28;20025;-79
2022/02/14 10:22:28;;;;;;;13.55;2.53;;;22.70;99.90;;;;;;5078375;28;20029;-79
2022/02/14 10:24:56;;;;;;;11.93;2.55;;;22.60;99.90;;;;;;5078159;28;20142;-79
2022/02/14 10:27:39;;;;;;;20.02;3.05;;;22.50;99.90;;;;;;5076200;28;20021;-78
2022/02/14 10:30:14;;;;;;;15.85;2.95;;;22.50;99.90;;;;;;5078428;28;20052;-77
2022/02/14 10:32:52;;;;;;;15.38;2.60;;;22.60;99.90;;;;;;5077452;28;20028;-78
2022/02/14 10:35:19;;;;;;;16.73;2.42;;;22.60;99.90;;;;;;5077798;28;20016;-78
2022/02/14 10:37:53;;;;;;;12.93;2.17;;;22.60;99.90;;;;;;5078152;28;20028;-79
2022/02/14 10:40:30;;;;;;;;;;;22.60;99.90;;;;;;5078762;28;20032;-78
2022/02/14 10:42:58;;;;;;;13.48;2.00;;;22.50;99.90;;;;;;5076401;28;19905;-79
2022/02/14 10:45:25;;;;;;;13.82;3.05;;;22.50;99.90;;;;;;5075545;28;20373;-79
2022/02/14 10:47:56;;;;;;;14.07;2.65;;;22.50;99.90;;;;;;5075079;28;20523;-78
2022/02/14 10:50:28;;;;;;;13.55;3.03;;;22.50;99.90;;;;;;5075313;28;20091;-79
2022/02/14 10:52:58;;;;;;;13.68;2.42;;;22.50;99.90;;;;;;5076301;28;20111;-77
2022/02/14 10:55:33;;;;;;;12.07;2.80;;;22.50;99.90;;;;;;5074051;28;20059;-78
2022/02/14 10:58:02;;;;;;;15.95;3.17;;;22.50;99.90;;;;;;5074885;28;20438;-79
2022/02/14 11:00:33;;;;;;;17.17;2.50;;;22.40;99.90;;;;;;5076122;28;20028;-79
2022/02/14 11:03:10;;;;;;;14.07;2.55;;;22.50;99.90;;;;;;5075381;28;20492;-78
2022/02/14 11:05:38;;;;;;;20.75;3.22;;;22.50;99.90;;;;;;5076126;28;20048;-79
2022/02/14 11:08:08;;;;;;;18.85;3.10;;;22.40;99.90;;;;;;5075589;28;20432;-79
2022/02/14 11:10:38;;;;;;;17.33;3.33;;;22.40;99.90;;;;;;5074620;28;20425;-80
2022/02/14 11:13:06;;;;;;;15.98;2.63;;;22.30;99.90;;;;;;5073688;28;20545;-79
2022/02/14 11:15:35;;;;;;;10.02;2.22;;;22.30;99.90;;;;;;5073514;28;20052;-80
2022/02/14 11:18:11;;;;;;;20.63;3.67;;;22.30;99.90;;;;;;5075040;28;20027;-79
2022/02/14 11:20:42;;;;;;;10.15;2.40;;;22.30;99.90;;;;;;5074124;28;20056;-79
2022/02/14 11:23:13;;;;;;;13.23;2.65;;;22.30;99.90;;;;;;5072920;28;20025;-80
2022/02/14 11:25:45;;;;;;;;;;;22.30;99.90;;;;;;5074358;28;20029;-80
2022/02/14 11:28:25;;;;;;;15.25;3.03;;;22.30;99.90;;;;;;5072760;28;20373;-81
2022/02/14 11:31:08;;;;;;;15.93;3.07;;;22.30;99.90;;;;;;5072485;28;20048;-80
2022/02/14 11:33:39;;;;;;;14.55;2.72;;;22.30;99.90;;;;;;5073917;28;20032;-79
2022/02/14 11:36:10;;;;;;;15.27;3.28;;;22.30;99.90;;;;;;5072751;28;20413;-79
2022/02/14 11:38:53;;;;;;;15.70;2.53;;;22.30;99.90;;;;;;5072361;28;20020;-79
2022/02/14 11:41:43;;;;;;;13.30;2.97;;;22.30;99.90;;;;;;5074005;28;20032;-79
2022/02/14 11:44:16;;;;;;;11.00;2.67;;;22.30;99.90;;;;;;5073011;28;20111;-79
2022/02/14 11:46:55;;;;;;;13.57;2.70;;;22.30;99.90;;;;;;5073902;28;20064;-78
2022/02/14 11:49:36;;;;;;;14.15;2.05;;;22.20;99.90;;;;;;5073972;28;20104;-79
2022/02/14 11:52:06;;;;;;;18.02;3.17;;;22.30;99.90;;;;;;5072679;28;20029;-79
2022/02/14 11:54:38;;;;;;;11.57;2.28;;;22.30;99.90;;;;;;5073855;28;20393;-79
2022/02/14 11:57:33;;;;;;;18.15;2.90;;;22.30;99.90;;;;;;5071757;28;20123;-80
2022/02/14 12:00:24;;;;;;;16.70;3.00;;;22.30;99.90;;;;;;5073475;28;20496;-79
2022/02/14 12:03:09;;;;;;;12.27;2.35;;;22.30;99.90;;;;;;5073037;28;20037;-79
2022/02/14 12:06:00;;;;;;;15.73;2.75;;;22.30;99.90;;;;;;5071839;28;20031;-82
2022/02/14 12:09:01;;;;;;;21.27;3.08;;;22.30;99.90;;;;;;5072293;28;20028;-80
2022/02/14 12:11:46;;;;;;;;;;;22.30;99.90;;;;;;5072687;28;20029;-82
2022/02/14 12:14:20;;;;;;;19.08;3.28;;;22.20;99.90;;;;;;5073670;28;20267;-80
2022/02/14 12:22:43;;;;;;;19.77;3.70;;;22.20;99.90;;;;;;5073782;28;20036;-79
2022/02/14 12:25:10;;;;;;;15.80;2.58;;;22.20;99.90;;;;;;5072001;28;20482;-80
2022/02/14 12:27:38;;;;;;;17.60;3.95;;;22.20;99.90;;;;;;5073538;28;20048;-79
2022/02/14 12:30:22;;;;;;;17.35;2.97;;;22.20;99.90;;;;;;5071908;28;20033;-79
2022/02/14 12:33:03;;;;;;;18.77;2.85;;;22.10;99.90;;;;;;5071840;28;20426;-79
2022/02/14 12:35:33;;;;;;;19.50;3.38;;;22.10;99.90;;;;;;5072268;28;20428;-79
2022/02/14 12:38:01;;;;;;;16.08;2.63;;;22.10;99.90;;;;;;5073452;28;20021;-78
2022/02/14 12:40:57;;;;;;;16.00;2.58;;;22.10;99.90;;;;;;5073253;28;20437;-80
2022/02/14 12:43:42;;;;;;;21.02;2.78;;;22.00;99.90;;;;;;5071340;28;20061;-80
2022/02/14 12:46:21;;;;;;;17.65;2.72;;;22.00;99.90;;;;;;5073272;28;20044;-80
2022/02/14 12:48:53;;;;;;;15.52;2.75;;;22.00;99.90;;;;;;5072000;28;20024;-80
2022/02/14 12:51:26;;;;;;;17.10;3.10;;;22.00;99.90;;;;;;5072352;28;20473;-79
2022/02/14 12:53:55;;;;;;;16.00;2.67;;;22.00;99.90;;;;;;5073224;28;20074;-80
2022/02/14 12:56:29;;;;;;;17.63;3.53;;;22.00;99.90;;;;;;5072241;28;20024;-80
2022/02/14 12:59:00;;;;;;;20.35;3.13;;;22.00;99.90;;;;;;5071778;28;20024;-80
2022/02/14 13:01:28;;;;;;;;;;;21.90;99.90;;;;;;5073171;28;20052;-80